createdAt,value
2022-09-20T00:01:40.914Z,16.33
2022-09-20T00:04:53.720Z,18.83
2022-09-20T00:08:05.732Z,17.03
2022-09-20T00:11:20.940Z,17.60
2022-09-20T00:14:33.264Z,16.75
2022-09-20T00:17:45.046Z,20.28
2022-09-20T00:20:58.461Z,18.98
2022-09-20T00:24:11.101Z,18.38
2022-09-20T00:27:23.284Z,18.70
2022-09-20T00:30:35.062Z,16.23
2022-09-20T00:34:01.814Z,19.00
2022-09-20T00:37:14.156Z,15.93
2022-09-20T00:40:28.941Z,16.73
2022-09-20T00:43:46.942Z,16.00
2022-09-20T00:46:59.388Z,17.05
2022-09-20T00:50:21.803Z,17.73
2022-09-20T00:53:38.382Z,15.40
2022-09-20T00:56:50.802Z,17.53
2022-09-20T01:00:02.858Z,21.95
2022-09-20T01:03:17.269Z,16.03
2022-09-20T01:06:30.858Z,16.93
2022-09-20T01:09:44.358Z,16.88
2022-09-20T01:12:58.427Z,17.45
2022-09-20T01:16:12.360Z,15.93
2022-09-20T01:19:29.840Z,20.30
2022-09-20T01:22:48.297Z,15.88
2022-09-20T01:26:28.772Z,17.53
2022-09-20T01:30:12.019Z,21.93
2022-09-20T01:33:31.082Z,15.88
2022-09-20T01:36:48.772Z,19.50
2022-09-20T01:40:10.796Z,16.03
2022-09-20T01:43:31.457Z,19.70
2022-09-20T01:46:47.953Z,19.15
2022-09-20T01:50:07.638Z,19.73
2022-09-20T01:53:59.749Z,16.20
2022-09-20T01:58:09.996Z,19.60
2022-09-20T02:02:13.039Z,20.20
2022-09-20T02:05:56.076Z,19.65
2022-09-20T02:09:46.153Z,17.38
2022-09-20T02:13:04.814Z,18.35
2022-09-20T02:16:51.717Z,17.85
2022-09-20T02:20:22.123Z,20.18
2022-09-20T02:23:48.367Z,16.70
2022-09-20T02:27:10.264Z,18.28
2022-09-20T02:30:37.188Z,17.43
2022-09-20T02:34:31.452Z,17.98
2022-09-20T02:38:40.770Z,17.15
2022-09-20T02:42:07.423Z,19.30
2022-09-20T02:45:25.050Z,18.27
2022-09-20T02:48:42.498Z,15.05
2022-09-20T02:51:59.515Z,18.33
2022-09-20T02:58:43.228Z,17.83
2022-09-20T03:02:04.160Z,19.13
2022-09-20T03:05:24.345Z,17.65
2022-09-20T03:08:44.464Z,15.58
2022-09-20T03:12:05.123Z,17.65
2022-09-20T03:15:27.378Z,17.65
2022-09-20T03:18:48.026Z,16.55
2022-09-20T03:22:08.592Z,15.98
2022-09-20T03:25:49.446Z,15.48
2022-09-20T03:29:09.053Z,16.15
2022-09-20T03:32:33.091Z,15.90
2022-09-20T03:35:58.200Z,18.03
2022-09-20T03:39:34.442Z,19.30
2022-09-20T03:42:51.287Z,16.45
2022-09-20T03:46:22.588Z,21.15
2022-09-20T03:50:01.162Z,17.95
2022-09-20T03:53:40.020Z,15.35
2022-09-20T04:00:08.101Z,16.53
2022-09-20T04:03:38.850Z,17.60
2022-09-20T04:07:08.554Z,19.48
2022-09-20T04:10:40.834Z,21.20
2022-09-20T04:13:59.228Z,17.23
2022-09-20T04:17:21.475Z,17.53
2022-09-20T04:20:44.004Z,16.70
2022-09-20T04:24:03.716Z,15.70
2022-09-20T04:27:23.911Z,17.40
2022-09-20T04:30:42.050Z,15.33
2022-09-20T04:33:57.376Z,21.77
2022-09-20T04:37:31.481Z,16.28
2022-09-20T04:41:16.659Z,16.35
2022-09-20T04:45:08.867Z,17.38
2022-09-20T04:49:10.285Z,16.70
2022-09-20T04:52:55.218Z,16.05
2022-09-20T04:56:14.026Z,16.25
2022-09-20T04:59:34.242Z,16.63
2022-09-20T05:03:25.197Z,15.80
2022-09-20T05:06:57.336Z,16.40
2022-09-20T05:10:41.509Z,16.93
2022-09-20T05:14:18.426Z,20.65
2022-09-20T05:17:47.024Z,16.57
2022-09-20T05:21:15.063Z,15.28
2022-09-20T05:24:46.947Z,16.78
2022-09-20T05:28:06.116Z,16.33
2022-09-20T05:31:23.709Z,19.05
2022-09-20T05:34:42.398Z,21.05
2022-09-20T05:38:02.335Z,45.38
2022-09-20T05:41:23.821Z,23.65
2022-09-20T05:44:44.160Z,20.35
2022-09-20T05:48:03.632Z,23.25
2022-09-20T05:51:24.207Z,19.93
2022-09-20T05:55:18.273Z,20.73
2022-09-20T05:59:11.061Z,18.93
2022-09-20T06:02:35.067Z,18.60
2022-09-20T06:05:54.776Z,21.38
2022-09-20T06:09:41.531Z,20.20
2022-09-20T06:13:01.971Z,26.68
2022-09-20T06:16:22.774Z,19.20
2022-09-20T06:19:45.420Z,19.75
2022-09-20T06:23:00.805Z,20.85
2022-09-20T06:26:19.813Z,18.05
2022-09-20T06:29:37.188Z,21.65
2022-09-20T06:33:04.452Z,19.03
2022-09-20T06:54:28.094Z,20.65
2022-09-20T06:57:55.611Z,22.48
2022-09-20T07:01:11.955Z,23.40
2022-09-20T07:04:25.899Z,18.85
2022-09-20T07:37:32.779Z,19.70
2022-09-20T07:40:43.702Z,16.28
2022-09-20T07:43:57.289Z,17.58
2022-09-20T07:50:25.068Z,15.28
2022-09-20T07:56:52.948Z,16.70
2022-09-20T08:00:04.639Z,17.25
2022-09-20T08:03:18.261Z,15.48
2022-09-20T08:06:31.077Z,15.85
2022-09-20T08:09:42.678Z,20.20
2022-09-20T08:16:15.272Z,12.45
2022-09-20T08:19:28.881Z,12.03
2022-09-20T08:22:43.391Z,12.08
2022-09-20T08:25:54.996Z,11.43
2022-09-20T08:29:08.067Z,19.90
2022-09-20T08:32:19.839Z,11.13
2022-09-20T08:35:31.576Z,10.15
2022-09-20T08:42:02.922Z,13.53
2022-09-20T08:45:33.602Z,9.90
2022-09-20T08:48:38.309Z,11.33
2022-09-20T08:51:51.084Z,11.68
2022-09-20T08:55:08.044Z,8.45
2022-09-20T09:01:33.553Z,8.58
2022-09-20T09:04:46.175Z,8.15
2022-09-20T09:07:58.506Z,8.20
2022-09-20T09:11:17.049Z,10.90
2022-09-20T09:14:54.364Z,9.95
2022-09-20T09:18:06.450Z,6.58
2022-09-20T09:21:25.780Z,7.68
2022-09-20T09:24:37.663Z,7.45
2022-09-20T09:28:01.323Z,8.60
2022-09-20T09:31:30.316Z,11.18
2022-09-20T09:34:42.415Z,6.48
2022-09-20T09:38:02.384Z,6.38
2022-09-20T09:41:29.844Z,9.18
2022-09-20T09:44:41.769Z,14.43
2022-09-20T09:47:53.613Z,6.70
2022-09-20T09:51:20.587Z,10.95
2022-09-20T09:54:36.103Z,6.38
2022-09-20T09:57:54.260Z,4.60
2022-09-20T10:01:11.175Z,4.28
2022-09-20T10:04:28.727Z,9.03
2022-09-20T10:07:45.772Z,7.95
2022-09-20T10:11:08.545Z,5.30
2022-09-20T10:14:33.751Z,6.93
2022-09-20T10:18:03.806Z,5.60
2022-09-20T10:21:26.315Z,6.50
2022-09-20T10:24:48.616Z,3.68
2022-09-20T10:28:11.706Z,4.25
2022-09-20T10:31:35.685Z,7.35
2022-09-20T10:35:18.381Z,7.03
2022-09-20T10:38:35.740Z,3.03
2022-09-20T10:42:13.966Z,2.50
2022-09-20T10:45:59.532Z,4.50
2022-09-20T10:48:49.271Z,6.38
2022-09-20T10:52:19.559Z,2.78
2022-09-20T10:55:46.530Z,34.20
2022-09-20T10:59:28.527Z,15.38
2022-09-20T11:02:53.574Z,8.45
2022-09-20T11:06:17.569Z,4.80
2022-09-20T11:09:33.953Z,4.43
2022-09-20T11:12:51.250Z,5.48
2022-09-20T11:16:09.805Z,6.93
2022-09-20T11:19:27.739Z,5.35
2022-09-20T11:22:48.237Z,25.13
2022-09-20T11:26:04.132Z,6.10
2022-09-20T11:29:23.980Z,9.08
2022-09-20T11:32:42.465Z,8.05
2022-09-20T11:35:59.573Z,6.28
2022-09-20T11:39:17.910Z,5.73
2022-09-20T11:42:34.969Z,7.95
2022-09-20T11:49:03.776Z,3.58
2022-09-20T11:52:48.487Z,5.55
2022-09-20T11:56:05.204Z,6.90
2022-09-20T11:59:28.361Z,23.18
2022-09-20T12:02:45.224Z,12.40
2022-09-20T12:06:04.955Z,3.85
2022-09-20T12:09:32.544Z,3.15
2022-09-20T12:16:06.712Z,4.00
2022-09-20T12:19:38.928Z,3.08
2022-09-20T12:22:50.643Z,2.60
2022-09-20T12:26:14.778Z,4.65
2022-09-20T12:30:20.159Z,3.95
2022-09-20T12:33:35.927Z,5.88
2022-09-20T12:36:50.264Z,3.73
2022-09-20T12:40:03.089Z,5.10
2022-09-20T12:43:25.501Z,2.20
2022-09-20T12:46:59.577Z,3.50
2022-09-20T12:50:34.437Z,2.50
2022-09-20T12:53:46.713Z,1.85
2022-09-20T12:56:58.787Z,2.05
2022-09-20T13:00:23.831Z,2.38
2022-09-20T13:03:39.223Z,2.38
2022-09-20T13:06:51.407Z,1.90
2022-09-20T13:10:03.662Z,1.78
2022-09-20T13:13:35.018Z,1.40
2022-09-20T13:16:56.763Z,4.45
2022-09-20T13:20:11.109Z,2.23
2022-09-20T13:23:30.442Z,2.28
2022-09-20T13:29:48.607Z,4.58
2022-09-20T13:33:00.660Z,2.38
2022-09-20T13:36:14.509Z,1.68
2022-09-20T13:39:41.246Z,2.23
2022-09-20T13:43:19.674Z,2.95
2022-09-20T13:46:17.240Z,2.98
2022-09-20T13:49:29.034Z,2.50
2022-09-20T13:52:50.760Z,2.68
2022-09-20T13:56:03.430Z,1.30
2022-09-20T14:02:27.438Z,1.70
2022-09-20T14:11:40.972Z,3.25
2022-09-20T14:14:54.957Z,2.95
2022-09-20T14:18:10.893Z,2.45
2022-09-20T14:21:28.519Z,3.30
2022-09-20T14:27:43.215Z,3.15
2022-09-20T14:30:55.297Z,3.05
2022-09-20T14:34:09.682Z,1.63
2022-09-20T14:37:26.862Z,1.78
2022-09-20T14:43:42.319Z,3.60
2022-09-20T14:46:54.673Z,2.70
2022-09-20T14:50:06.534Z,1.15
2022-09-20T14:53:38.391Z,6.48
2022-09-20T14:56:57.107Z,5.75
2022-09-20T15:00:15.206Z,1.68
2022-09-20T15:03:33.264Z,3.23
2022-09-20T15:06:46.110Z,4.90
2022-09-20T15:09:59.067Z,3.38
2022-09-20T15:13:12.718Z,5.85
2022-09-20T15:16:26.255Z,4.70
2022-09-20T15:19:40.664Z,6.20
2022-09-20T15:22:53.616Z,3.70
2022-09-20T15:26:05.922Z,4.13
2022-09-20T15:29:22.158Z,3.18
2022-09-20T15:32:33.760Z,3.27
2022-09-20T15:35:46.965Z,3.45
2022-09-20T15:39:00.956Z,4.08
2022-09-20T15:42:13.191Z,6.15
2022-09-20T15:45:27.301Z,4.70
2022-09-20T15:48:40.244Z,7.33
2022-09-20T15:51:52.964Z,4.18
2022-09-20T15:55:05.131Z,4.13
2022-09-20T15:58:17.212Z,4.30
2022-09-20T16:01:29.860Z,3.13
2022-09-20T16:04:41.914Z,6.33
2022-09-20T16:07:53.729Z,4.20
2022-09-20T16:11:06.891Z,5.13
2022-09-20T16:14:19.702Z,4.53
2022-09-20T16:17:43.299Z,4.43
2022-09-20T16:20:55.026Z,5.63
2022-09-20T16:24:08.050Z,3.45
2022-09-20T16:27:20.262Z,3.90
2022-09-20T16:30:33.082Z,3.50
2022-09-20T16:33:45.296Z,3.35
2022-09-20T16:36:59.879Z,4.23
2022-09-20T16:40:16.216Z,3.33
2022-09-20T16:43:29.894Z,4.20
2022-09-20T16:46:44.733Z,4.65
2022-09-20T16:49:58.434Z,4.23
2022-09-20T16:53:12.457Z,8.38
2022-09-20T16:56:31.122Z,3.88
2022-09-20T16:59:43.260Z,4.00
2022-09-20T17:02:56.197Z,6.23
2022-09-20T17:06:12.447Z,7.98
2022-09-20T17:09:25.556Z,5.38
2022-09-20T17:12:40.444Z,5.55
2022-09-20T17:15:53.647Z,5.65
2022-09-20T17:19:09.590Z,8.85
2022-09-20T17:22:22.913Z,9.40
2022-09-20T17:25:35.863Z,7.68
2022-09-20T17:28:51.504Z,8.95
2022-09-20T17:32:07.721Z,9.60
2022-09-20T17:35:20.026Z,6.88
2022-09-20T17:38:33.361Z,8.35
2022-09-20T17:41:47.595Z,8.50
2022-09-20T17:44:59.969Z,9.78
2022-09-20T17:48:11.902Z,9.55
2022-09-20T17:51:25.913Z,9.38
2022-09-20T17:54:37.611Z,9.00
2022-09-20T17:57:49.618Z,10.63
2022-09-20T18:01:12.764Z,13.03
2022-09-20T18:04:25.306Z,9.83
2022-09-20T18:07:37.134Z,11.45
2022-09-20T18:11:00.845Z,10.18
2022-09-20T18:14:14.553Z,14.45
2022-09-20T18:17:26.624Z,14.38
2022-09-20T18:20:38.308Z,13.75
2022-09-20T18:23:53.759Z,13.78
2022-09-20T18:27:06.270Z,15.45
2022-09-20T18:30:21.457Z,15.18
2022-09-20T18:33:38.258Z,16.88
2022-09-20T18:39:55.546Z,14.63
2022-09-20T18:43:11.177Z,13.45
2022-09-20T18:46:25.267Z,15.48
2022-09-20T18:49:38.409Z,12.10
2022-09-20T18:52:51.307Z,12.98
2022-09-20T18:56:19.552Z,14.80
2022-09-20T18:59:33.567Z,16.90
2022-09-20T19:03:09.454Z,16.25
2022-09-20T19:06:24.628Z,12.53
2022-09-20T19:09:45.686Z,18.00
2022-09-20T19:13:05.123Z,16.58
2022-09-20T19:16:38.534Z,17.03
2022-09-20T19:19:56.968Z,19.50
2022-09-20T19:23:25.828Z,18.98
2022-09-20T19:26:42.555Z,20.90
2022-09-20T19:33:14.685Z,16.65
2022-09-20T19:36:38.808Z,18.55
2022-09-20T19:40:20.016Z,18.35
2022-09-20T19:44:01.298Z,18.58
2022-09-20T19:47:29.226Z,18.98
2022-09-20T19:50:48.454Z,19.90
2022-09-20T19:54:02.945Z,19.03
2022-09-20T19:57:21.771Z,20.88
2022-09-20T20:00:36.928Z,20.58
2022-09-20T20:03:50.638Z,17.40
2022-09-20T20:07:10.204Z,22.40
2022-09-20T20:10:30.456Z,18.63
2022-09-20T20:14:02.980Z,22.00
2022-09-20T20:17:28.314Z,19.53
2022-09-20T20:20:48.359Z,22.18
2022-09-20T20:24:15.633Z,25.48
2022-09-20T20:27:31.494Z,24.83
2022-09-20T20:30:43.461Z,25.83
2022-09-20T20:33:55.561Z,27.10
2022-09-20T20:37:07.504Z,29.50
2022-09-20T20:40:23.436Z,27.43
2022-09-20T20:43:36.171Z,27.95
2022-09-20T20:46:47.834Z,28.95
2022-09-20T20:49:59.869Z,31.00
2022-09-20T20:53:11.604Z,27.98
2022-09-20T20:56:26.429Z,27.88
2022-09-20T20:59:38.138Z,28.63
2022-09-20T21:02:50.212Z,27.93
2022-09-20T21:06:04.464Z,26.38
2022-09-20T21:09:17.336Z,29.68
2022-09-20T21:12:31.135Z,26.38
2022-09-20T21:15:43.321Z,32.85
2022-09-20T21:18:56.759Z,31.40
2022-09-20T21:22:09.708Z,28.35
2022-09-20T21:25:23.677Z,30.45
2022-09-20T21:28:40.118Z,28.70
2022-09-20T21:31:59.779Z,33.95
2022-09-20T21:35:14.527Z,32.05
2022-09-20T21:38:28.112Z,32.38
2022-09-20T21:41:42.345Z,30.85
2022-09-20T21:44:54.093Z,28.23
2022-09-20T21:48:07.936Z,29.38
2022-09-20T21:51:22.647Z,32.95
2022-09-20T21:54:34.499Z,29.80
2022-09-20T21:57:46.504Z,30.08
2022-09-20T22:01:06.357Z,31.68
2022-09-20T22:04:19.252Z,33.00
2022-09-20T22:07:31.017Z,32.98
2022-09-20T22:10:42.769Z,33.00
2022-09-20T22:13:56.581Z,26.20
2022-09-20T22:17:08.186Z,32.93
2022-09-20T22:20:20.280Z,28.75
2022-09-20T22:23:31.908Z,29.45
2022-09-20T22:26:46.158Z,29.70
2022-09-20T22:30:00.421Z,28.75
2022-09-20T22:33:12.287Z,30.03
2022-09-20T22:36:27.083Z,31.05
2022-09-20T22:39:38.805Z,28.68
2022-09-20T22:42:50.459Z,28.03
2022-09-20T22:46:10.682Z,28.30
2022-09-20T22:49:22.536Z,28.30
2022-09-20T22:52:34.180Z,28.40
2022-09-20T22:55:45.760Z,31.60
2022-09-20T22:59:00.259Z,27.85
2022-09-20T23:02:12.447Z,30.63
2022-09-20T23:05:24.414Z,24.40
2022-09-20T23:08:37.694Z,29.70
2022-09-20T23:11:50.660Z,24.85
2022-09-20T23:15:02.158Z,26.83
2022-09-20T23:18:16.095Z,25.40
2022-09-20T23:21:28.581Z,31.50
2022-09-20T23:24:40.458Z,25.38
2022-09-20T23:27:52.009Z,27.35
2022-09-20T23:31:09.076Z,33.53
2022-09-20T23:37:31.194Z,31.10
2022-09-20T23:40:43.469Z,25.33
2022-09-20T23:43:55.846Z,28.90
2022-09-20T23:47:07.559Z,28.80
2022-09-20T23:50:19.215Z,33.60
2022-09-20T23:53:30.989Z,26.48
2022-09-20T23:56:42.851Z,25.38
2022-09-20T23:59:54.529Z,22.65
